Time;durP1;ratioP1;P1;durP2;ratioP2;P2;SDS_P1;SDS_P2;PMS_P1;PMS_P2;Temp;Humidity;BMP_temperature;BMP_pressure;BME280_temperature;BME280_humidity;BME280_pressure;Samples;Min_cycle;Max_cycle;Signal;HPM_P1;HPM_P2
2024/04/11 00:02:04;;;;;;;9.30;2.72;;;10.70;99.90;;;;;;5525344;25;20025;-79
2024/04/11 00:04:31;;;;;;;10.52;3.30;;;10.70;99.90;;;;;;5528242;25;20025;-79
2024/04/11 00:06:58;;;;;;;13.43;2.90;;;10.70;99.90;;;;;;5523079;25;20037;-79
2024/04/11 00:09:25;;;;;;;8.75;2.72;;;10.80;99.90;;;;;;5526793;25;20029;-78
2024/04/11 00:11:51;;;;;;;7.88;2.88;;;10.80;99.90;;;;;;5522652;25;20497;-78
2024/04/11 00:14:19;;;;;;;9.10;2.95;;;10.80;99.90;;;;;;5531602;25;20383;-78
2024/04/11 00:16:45;;;;;;;9.00;2.20;;;10.80;99.90;;;;;;5530837;25;20127;-80
2024/04/11 00:19:12;;;;;;;9.45;2.35;;;10.80;99.90;;;;;;5538732;25;20013;-79
2024/04/11 00:21:39;;;;;;;9.85;2.47;;;10.80;99.90;;;;;;5525926;25;20357;-79
2024/04/11 00:24:06;;;;;;;6.47;2.13;;;10.90;99.90;;;;;;5523565;25;20022;-79
2024/04/11 00:26:33;;;;;;;11.38;2.50;;;10.90;99.90;;;;;;5523368;25;20037;-79
2024/04/11 00:28:59;;;;;;;8.50;2.85;;;10.90;99.90;;;;;;5525044;25;20037;-79
2024/04/11 00:31:26;;;;;;;6.55;2.15;;;10.90;99.90;;;;;;5526887;25;20673;-78
2024/04/11 00:34:12;;;;;;;11.95;2.40;;;10.90;99.90;;;;;;5523893;25;20017;-80
2024/04/11 00:36:44;;;;;;;10.88;2.67;;;11.90;99.90;;;;;;5523783;25;20037;-78
2024/04/11 00:39:20;;;;;;;9.15;2.53;;;10.90;99.90;;;;;;5525265;25;20022;-79
2024/04/11 00:41:48;;;;;;;11.45;2.92;;;11.00;99.90;;;;;;5526001;25;20026;-79
2024/04/11 00:44:16;;;;;;;9.60;2.85;;;10.90;99.90;;;;;;5531660;25;20025;-79
2024/04/11 00:46:51;;;;;;;6.80;2.40;;;11.00;99.90;;;;;;5528918;25;20033;-79
2024/04/11 00:49:19;;;;;;;6.22;2.15;;;11.00;99.90;;;;;;5540434;25;20472;-79
2024/04/11 00:51:47;;;;;;;5.47;2.75;;;11.00;99.90;;;;;;5533997;25;20390;-80
2024/04/11 00:54:17;;;;;;;7.90;2.33;;;11.00;99.90;;;;;;5532232;25;20029;-79
2024/04/11 00:56:44;;;;;;;6.90;2.08;;;11.00;99.90;;;;;;5536168;25;20013;-77
2024/04/11 00:59:14;;;;;;;9.93;2.95;;;11.00;99.90;;;;;;5534591;25;20030;-79
2024/04/11 01:01:41;;;;;;;8.60;2.35;;;11.10;99.90;;;;;;5525704;25;20037;-80
2024/04/11 01:04:08;;;;;;;9.27;2.00;;;11.10;99.90;;;;;;5532255;25;20037;-79
2024/04/11 01:09:28;;;;;;;6.43;2.13;;;11.30;99.90;;;;;;5527217;25;20025;-80
2024/04/11 01:11:55;;;;;;;6.53;2.33;;;11.20;99.90;;;;;;5525201;25;20011;-79
2024/04/11 01:14:23;;;;;;;7.30;2.58;;;11.20;99.90;;;;;;5531501;25;20046;-79
2024/04/11 01:16:50;;;;;;;7.30;2.25;;;11.20;99.90;;;;;;5521227;25;20042;-79
2024/04/11 01:19:17;;;;;;;8.05;2.28;;;11.20;99.90;;;;;;5533687;25;20041;-79
2024/04/11 01:21:44;;;;;;;7.65;2.17;;;11.20;99.90;;;;;;5532801;25;20033;-79
2024/04/11 01:24:13;;;;;;;8.38;2.75;;;11.20;99.90;;;;;;5530892;25;20377;-79
2024/04/11 01:26:40;;;;;;;7.13;1.83;;;11.20;99.90;;;;;;5524520;25;20030;-79
2024/04/11 01:29:07;;;;;;;6.93;2.20;;;11.30;99.90;;;;;;5527684;25;20032;-80
2024/04/11 01:31:34;;;;;;;10.80;2.60;;;11.30;99.90;;;;;;5533212;25;20033;-80
2024/04/11 01:34:01;;;;;;;5.57;2.40;;;11.30;99.90;;;;;;5539068;25;20033;-78
2024/04/11 01:36:28;;;;;;;7.65;2.60;;;11.30;99.90;;;;;;5517383;25;20998;-80
2024/04/11 01:38:55;;;;;;;9.10;1.98;;;11.30;99.90;;;;;;5530562;25;20018;-79
2024/04/11 01:41:23;;;;;;;7.82;2.25;;;11.40;99.90;;;;;;5524566;25;20025;-78
2024/04/11 01:43:50;;;;;;;10.00;2.20;;;11.40;99.90;;;;;;5527989;25;20029;-79
2024/04/11 01:46:18;;;;;;;7.72;2.10;;;11.40;99.90;;;;;;5530021;25;20037;-80
2024/04/11 01:48:45;;;;;;;6.93;2.10;;;11.40;99.90;;;;;;5531111;25;20022;-79
2024/04/11 01:51:13;;;;;;;9.02;2.78;;;11.40;99.90;;;;;;5526608;25;20476;-78
2024/04/11 01:53:44;;;;;;;5.15;2.40;;;11.50;99.90;;;;;;5522566;25;20044;-79
2024/04/11 01:56:11;;;;;;;7.32;1.77;;;11.40;99.90;;;;;;5528146;25;20026;-80
2024/04/11 01:58:41;;;;;;;8.70;2.13;;;11.40;99.90;;;;;;5532124;25;20052;-79
2024/04/11 02:01:13;;;;;;;8.80;2.42;;;11.40;99.90;;;;;;5528135;25;20037;-79
2024/04/11 02:03:39;;;;;;;7.35;1.80;;;11.40;99.90;;;;;;5520228;26;20469;-79
2024/04/11 02:06:07;;;;;;;8.57;2.53;;;11.50;99.90;;;;;;5529824;25;20044;-79
2024/04/11 02:08:35;;;;;;;8.57;1.90;;;11.40;99.90;;;;;;5528810;25;20020;-79
2024/04/11 02:11:03;;;;;;;6.47;1.77;;;12.30;99.90;;;;;;5534318;25;20025;-80
2024/04/11 02:13:29;;;;;;;9.00;1.65;;;11.50;99.90;;;;;;5524968;25;20369;-80
2024/04/11 02:15:56;;;;;;;5.68;2.05;;;11.50;99.90;;;;;;5526100;25;20025;-78
2024/04/11 02:18:24;;;;;;;5.07;1.90;;;11.50;99.90;;;;;;5530219;25;20056;-79
2024/04/11 02:20:53;;;;;;;6.85;1.70;;;11.50;99.90;;;;;;5524260;25;20033;-79
2024/04/11 02:23:20;;;;;;;5.63;1.90;;;11.50;99.90;;;;;;5524114;25;20028;-80
2024/04/11 02:25:47;;;;;;;7.40;1.83;;;11.50;99.90;;;;;;5525805;25;20038;-80
2024/04/11 02:28:14;;;;;;;10.93;2.65;;;11.50;99.90;;;;;;5528813;25;20025;-80
2024/04/11 02:30:43;;;;;;;6.65;2.00;;;11.50;99.90;;;;;;5528198;25;20029;-80
2024/04/11 02:33:10;;;;;;;5.63;2.05;;;11.50;99.90;;;;;;5526121;25;20022;-80
2024/04/11 02:35:38;;;;;;;8.35;2.08;;;11.60;99.90;;;;;;5534520;25;20375;-80
2024/04/11 02:38:05;;;;;;;5.70;2.25;;;11.60;99.90;;;;;;5532476;25;20038;-79
2024/04/11 02:40:31;;;;;;;7.65;1.92;;;11.60;99.90;;;;;;5536799;25;20020;-78
2024/04/11 02:42:58;;;;;;;9.13;2.88;;;11.60;99.90;;;;;;5528071;25;20029;-80
2024/04/11 02:45:25;;;;;;;8.77;1.80;;;11.60;99.90;;;;;;5534403;25;20362;-79
2024/04/11 02:47:52;;;;;;;9.85;2.10;;;11.60;99.90;;;;;;5532934;25;20041;-80
2024/04/11 02:50:23;;;;;;;6.75;1.80;;;11.60;99.90;;;;;;5534677;25;20022;-78
2024/04/11 02:52:50;;;;;;;7.68;2.08;;;11.70;99.90;;;;;;5530801;25;20023;-79
2024/04/11 02:55:17;;;;;;;5.35;2.08;;;11.70;99.90;;;;;;5528504;25;20025;-79
2024/04/11 02:57:44;;;;;;;6.72;1.85;;;11.70;99.90;;;;;;5519509;25;20053;-79
2024/04/11 03:00:11;;;;;;;6.03;2.17;;;11.70;99.90;;;;;;5525720;25;20038;-80
2024/04/11 03:02:39;;;;;;;10.23;2.25;;;11.70;99.90;;;;;;5523289;25;20034;-80
2024/04/11 03:05:06;;;;;;;5.15;1.83;;;11.70;99.90;;;;;;5521130;25;20023;-81
2024/04/11 03:07:33;;;;;;;9.68;2.10;;;11.70;99.90;;;;;;5526095;25;20627;-80
2024/04/11 03:10:00;;;;;;;5.22;1.80;;;11.70;99.90;;;;;;5527462;25;20021;-80
2024/04/11 03:12:26;;;;;;;7.43;2.08;;;11.70;99.90;;;;;;5529582;25;20038;-79
2024/04/11 03:14:53;;;;;;;7.72;3.35;;;11.80;99.90;;;;;;5522317;25;20025;-80
2024/04/11 03:17:20;;;;;;;10.15;2.38;;;12.20;99.90;;;;;;5524759;25;20037;-80
2024/04/11 03:19:47;;;;;;;8.38;2.67;;;11.80;99.90;;;;;;5540691;25;20023;-79
2024/04/11 03:22:14;;;;;;;8.23;2.45;;;12.10;99.90;;;;;;5522092;25;20378;-79
2024/04/11 03:24:42;;;;;;;6.68;2.53;;;11.80;99.90;;;;;;5532795;25;20044;-79
2024/04/11 03:27:10;;;;;;;6.65;2.35;;;11.80;99.90;;;;;;5526064;25;20375;-80
2024/04/11 03:29:36;;;;;;;5.88;2.75;;;11.90;99.90;;;;;;5535656;25;20024;-80
2024/04/11 03:32:03;;;;;;;6.00;2.60;;;11.90;99.90;;;;;;5534082;25;20025;-80
2024/04/11 03:34:31;;;;;;;8.25;2.42;;;11.80;99.90;;;;;;5531770;25;20013;-80
2024/04/11 03:36:58;;;;;;;12.30;2.83;;;11.80;99.90;;;;;;5532059;25;20026;-79
2024/04/11 03:39:25;;;;;;;6.90;2.20;;;11.90;99.90;;;;;;5524947;25;20029;-79
2024/04/11 03:41:55;;;;;;;8.10;2.13;;;11.90;99.90;;;;;;5529391;25;20033;-80
2024/04/11 03:44:22;;;;;;;6.70;2.05;;;11.90;99.90;;;;;;5521064;25;20049;-80
2024/04/11 03:46:49;;;;;;;6.20;2.20;;;11.90;99.90;;;;;;5525174;25;20026;-79
2024/04/11 03:49:15;;;;;;;6.78;2.47;;;11.90;99.90;;;;;;5529171;25;20393;-82
2024/04/11 03:51:49;;;;;;;9.55;2.28;;;11.80;99.90;;;;;;5528131;25;20089;-80
2024/04/11 03:54:16;;;;;;;6.73;2.00;;;11.80;99.90;;;;;;5532758;25;20045;-80
2024/04/11 03:56:43;;;;;;;5.97;1.83;;;11.80;99.90;;;;;;5525737;25;20025;-81
2024/04/11 03:59:10;;;;;;;6.45;2.28;;;11.80;99.90;;;;;;5532201;25;20833;-80
2024/04/11 04:01:37;;;;;;;8.07;2.55;;;11.80;99.90;;;;;;5532431;25;20021;-81
2024/04/11 04:04:07;;;;;;;6.20;3.08;;;11.70;99.90;;;;;;5537100;25;20018;-80
2024/04/11 04:06:34;;;;;;;8.90;2.53;;;11.70;99.90;;;;;;5530762;25;20024;-81
2024/04/11 04:09:07;;;;;;;10.30;2.55;;;11.70;99.90;;;;;;5534064;25;20480;-81
2024/04/11 04:11:37;;;;;;;11.02;2.63;;;11.70;99.90;;;;;;5532014;25;20021;-80
2024/04/11 04:14:08;;;;;;;8.45;2.60;;;11.70;99.90;;;;;;5531190;25;20029;-79
2024/04/11 04:16:35;;;;;;;5.82;2.00;;;11.60;99.90;;;;;;5516305;26;20029;-80
2024/04/11 04:19:02;;;;;;;9.15;2.90;;;11.60;99.90;;;;;;5528684;25;20049;-81
2024/04/11 04:21:29;;;;;;;7.45;2.53;;;11.50;99.90;;;;;;5527232;25;20049;-81
2024/04/11 04:23:59;;;;;;;11.63;2.95;;;11.50;99.90;;;;;;5532462;25;20481;-79
2024/04/11 04:26:30;;;;;;;7.82;2.72;;;11.40;99.90;;;;;;5534500;25;20456;-81
2024/04/11 04:29:00;;;;;;;9.25;2.92;;;11.30;99.90;;;;;;5526716;25;20022;-79
2024/04/11 04:31:29;;;;;;;9.48;2.67;;;11.30;99.90;;;;;;5527457;25;20038;-80
2024/04/11 04:34:01;;;;;;;9.38;2.65;;;11.20;99.90;;;;;;5530160;25;20440;-79
2024/04/11 04:36:33;;;;;;;7.38;2.60;;;11.00;99.90;;;;;;5531741;25;20048;-79
2024/04/11 04:39:05;;;;;;;7.68;2.67;;;11.00;99.90;;;;;;5535133;25;20022;-80
2024/04/11 04:41:34;;;;;;;8.98;2.92;;;10.90;99.90;;;;;;5534661;25;20037;-80
2024/04/11 04:44:05;;;;;;;9.13;3.03;;;10.80;99.90;;;;;;5527176;25;20030;-80
2024/04/11 04:46:33;;;;;;;6.65;2.97;;;10.70;99.90;;;;;;5535136;25;20029;-81
2024/04/11 04:49:02;;;;;;;8.95;3.85;;;10.90;99.90;;;;;;5541789;25;20030;-80
2024/04/11 04:51:33;;;;;;;7.78;3.03;;;10.60;99.90;;;;;;5548767;25;20022;-81
2024/04/11 04:54:01;;;;;;;8.40;3.17;;;10.50;99.90;;;;;;5534615;25;20041;-80
2024/04/11 04:56:29;;;;;;;9.40;3.20;;;10.40;99.90;;;;;;5526612;25;20381;-79
2024/04/11 04:58:59;;;;;;;7.05;3.65;;;10.30;99.90;;;;;;5536483;25;20022;-79
2024/04/11 05:01:26;;;;;;;11.75;3.67;;;10.20;99.90;;;;;;5525831;25;20042;-80
2024/04/11 05:03:55;;;;;;;9.27;3.65;;;10.70;99.90;;;;;;5529546;25;20042;-79
2024/04/11 05:06:23;;;;;;;7.82;3.20;;;10.20;99.90;;;;;;5525887;25;20034;-80
2024/04/11 05:08:53;;;;;;;7.93;3.60;;;10.20;99.90;;;;;;5526579;25;20370;-79
2024/04/11 05:11:25;;;;;;;7.60;3.10;;;10.20;99.90;;;;;;5530741;25;20362;-78
2024/04/11 05:13:52;;;;;;;9.57;3.30;;;11.20;99.90;;;;;;5527951;25;20029;-80
2024/04/11 05:16:20;;;;;;;8.77;3.42;;;10.10;99.90;;;;;;5537508;25;20021;-78
2024/04/11 05:18:49;;;;;;;9.00;3.67;;;10.80;99.90;;;;;;5523873;26;20022;-79
2024/04/11 05:21:24;;;;;;;9.43;3.92;;;10.20;99.90;;;;;;5522744;25;20010;-80
2024/04/11 05:23:51;;;;;;;;;;;10.00;99.90;;;;;;5527747;25;20452;-79
2024/04/11 05:26:25;;;;;;;11.85;3.75;;;9.10;99.90;;;;;;5535645;25;19966;-80
2024/04/11 05:29:01;;;;;;;10.48;4.10;;;10.20;99.90;;;;;;5529959;25;20020;-79
2024/04/11 05:31:28;;;;;;;17.30;4.63;;;10.20;99.90;;;;;;5541845;25;20037;-79
2024/04/11 05:34:13;;;;;;;12.43;3.55;;;10.20;99.90;;;;;;5530366;25;20013;-80
2024/04/11 05:36:41;;;;;;;8.50;3.58;;;10.20;99.90;;;;;;5525221;25;20037;-80
2024/04/11 05:39:09;;;;;;;12.20;3.95;;;10.90;99.90;;;;;;5520438;25;20030;-79
2024/04/11 05:41:43;;;;;;;9.85;3.90;;;10.30;99.90;;;;;;5517061;25;20026;-80
2024/04/11 05:44:14;;;;;;;6.93;3.35;;;10.30;99.90;;;;;;5523496;25;20029;-81
2024/04/11 05:46:41;;;;;;;9.75;4.00;;;10.40;99.90;;;;;;5519459;25;20021;-79
2024/04/11 05:49:09;;;;;;;9.43;3.92;;;;;;;;;;5523813;25;20037;-80
2024/04/11 05:51:36;;;;;;;13.00;4.35;;;10.30;99.90;;;;;;5523141;25;20106;-80
2024/04/11 05:54:03;;;;;;;13.60;4.10;;;10.90;99.90;;;;;;5524899;25;20021;-80
2024/04/11 05:56:30;;;;;;;9.10;3.67;;;10.30;99.90;;;;;;5521507;25;20006;-80
2024/04/11 05:58:57;;;;;;;10.77;3.90;;;10.30;99.90;;;;;;5531086;25;20107;-80
2024/04/11 06:01:25;;;;;;;14.70;5.10;;;11.00;99.90;;;;;;5529636;25;20666;-80
2024/04/11 06:03:52;;;;;;;10.05;4.30;;;10.40;99.90;;;;;;5523815;25;20100;-80
2024/04/11 06:06:21;;;;;;;9.07;3.83;;;10.40;99.90;;;;;;5521579;25;20017;-80
2024/04/11 06:08:55;;;;;;;10.25;4.30;;;10.40;99.90;;;;;;5547733;25;20033;-80
2024/04/11 06:11:21;;;;;;;13.18;4.70;;;10.40;99.90;;;;;;5538205;25;20025;-79
2024/04/11 06:13:48;;;;;;;13.10;5.10;;;10.50;99.90;;;;;;5537191;25;20049;-80
2024/04/11 06:16:15;;;;;;;10.77;4.47;;;10.40;99.90;;;;;;5529675;25;20802;-80
2024/04/11 06:18:43;;;;;;;11.00;3.85;;;10.50;99.90;;;;;;5529124;25;20033;-79
2024/04/11 06:21:11;;;;;;;9.88;4.00;;;10.50;99.90;;;;;;5522845;25;20048;-80
2024/04/11 06:23:38;;;;;;;13.52;4.43;;;10.70;99.90;;;;;;5506840;26;20034;-80
2024/04/11 06:26:14;;;;;;;8.02;3.85;;;10.50;99.90;;;;;;5531332;25;20033;-80
2024/04/11 06:28:44;;;;;;;12.35;4.43;;;10.50;99.90;;;;;;5533559;25;20024;-80
2024/04/11 06:31:12;;;;;;;9.52;4.00;;;10.50;99.90;;;;;;5527755;25;20025;-80
2024/04/11 06:33:40;;;;;;;16.60;4.95;;;10.60;99.90;;;;;;5528372;25;20029;-80
2024/04/11 06:36:10;;;;;;;12.23;5.00;;;10.50;99.90;;;;;;5527814;25;20029;-80
2024/04/11 06:38:37;;;;;;;13.40;4.88;;;10.50;99.90;;;;;;5539584;25;20025;-79
2024/04/11 06:41:04;;;;;;;7.60;4.47;;;10.60;99.90;;;;;;5526681;25;20021;-80
2024/04/11 06:43:31;;;;;;;12.70;5.55;;;10.60;99.90;;;;;;5529572;25;20036;-80
2024/04/11 06:45:58;;;;;;;13.18;4.72;;;10.60;99.90;;;;;;5532344;25;20013;-80
2024/04/11 06:48:24;;;;;;;14.93;5.30;;;10.60;99.90;;;;;;5541463;25;20022;-80
2024/04/11 06:50:53;;;;;;;20.38;6.65;;;10.70;99.90;;;;;;5532191;25;20021;-80
2024/04/11 06:53:22;;;;;;;15.30;5.68;;;11.50;99.90;;;;;;5524592;25;20488;-80
2024/04/11 06:55:49;;;;;;;15.70;6.18;;;10.70;99.90;;;;;;5530767;25;20029;-80
2024/04/11 06:58:22;;;;;;;10.52;5.93;;;10.70;99.90;;;;;;5529588;25;20030;-82
2024/04/11 07:00:59;;;;;;;16.77;7.83;;;10.70;99.90;;;;;;5524007;25;20488;-80
2024/04/11 07:03:26;;;;;;;13.27;6.53;;;10.80;99.90;;;;;;5532238;25;20021;-81
2024/04/11 07:05:59;;;;;;;17.23;7.40;;;10.70;99.90;;;;;;5525572;25;20029;-81
2024/04/11 07:08:31;;;;;;;20.73;7.43;;;10.80;99.90;;;;;;5530686;25;20045;-79
2024/04/11 07:11:19;;;;;;;15.47;7.57;;;10.80;99.90;;;;;;5540851;25;20493;-79
2024/04/11 07:13:51;;;;;;;13.60;6.80;;;10.80;99.90;;;;;;5528297;25;20020;-81
2024/04/11 07:16:29;;;;;;;19.83;7.25;;;10.80;99.90;;;;;;5536831;25;20038;-81
2024/04/11 07:18:56;;;;;;;10.80;6.78;;;10.80;99.90;;;;;;5551958;25;20017;-79
2024/04/11 07:21:25;;;;;;;17.05;7.57;;;10.90;99.90;;;;;;5509077;25;20026;-81
2024/04/11 07:23:58;;;;;;;17.48;7.85;;;10.90;99.90;;;;;;5527558;25;20025;-81
2024/04/11 07:26:29;;;;;;;15.73;8.63;;;10.90;99.90;;;;;;5546280;25;20472;-80
2024/04/11 07:28:59;;;;;;;18.55;9.02;;;10.90;99.90;;;;;;5535832;25;20045;-79
2024/04/11 07:31:27;;;;;;;20.35;8.70;;;10.90;99.90;;;;;;5545910;25;20028;-80
2024/04/11 07:33:55;;;;;;;13.55;8.13;;;10.90;99.90;;;;;;5525349;25;20029;-80
2024/04/11 07:36:22;;;;;;;13.77;7.32;;;10.90;99.90;;;;;;5541545;25;20392;-80
2024/04/11 07:38:49;;;;;;;16.02;9.25;;;10.90;99.90;;;;;;5544394;25;20045;-81
2024/04/11 07:41:16;;;;;;;21.73;9.68;;;10.90;99.90;;;;;;5538018;25;20040;-81
2024/04/11 07:43:57;;;;;;;18.90;10.32;;;11.00;99.90;;;;;;5517215;25;20026;-81
2024/04/11 07:46:28;;;;;;;21.70;11.13;;;11.00;99.90;;;;;;5522735;26;20449;-81
2024/04/11 07:48:56;;;;;;;22.10;10.88;;;11.00;99.90;;;;;;5526735;25;20025;-81
2024/04/11 07:51:24;;;;;;;19.70;11.25;;;11.00;99.90;;;;;;5532006;25;20053;-81
2024/04/11 07:53:50;;;;;;;21.33;11.57;;;11.10;99.90;;;;;;5541622;25;20037;-81
2024/04/11 07:56:23;;;;;;;18.98;10.75;;;11.10;99.90;;;;;;5532517;25;20029;-81
2024/04/11 07:58:55;;;;;;;21.48;11.68;;;11.20;99.90;;;;;;5540003;25;20021;-82
2024/04/11 08:01:30;;;;;;;28.60;12.00;;;11.50;99.90;;;;;;5530410;25;20053;-81
2024/04/11 08:04:00;;;;;;;21.05;12.50;;;11.20;99.90;;;;;;5539589;25;20041;-79
2024/04/11 08:06:28;;;;;;;19.10;12.93;;;11.20;99.90;;;;;;5517332;25;20037;-80
2024/04/11 08:08:56;;;;;;;21.60;11.70;;;11.20;99.90;;;;;;5565728;25;20025;-80
2024/04/11 08:11:27;;;;;;;20.55;11.57;;;11.30;99.90;;;;;;5519678;25;20045;-80
2024/04/11 08:13:54;;;;;;;18.88;11.85;;;11.30;99.90;;;;;;5529067;25;20378;-80
2024/04/11 08:16:21;;;;;;;18.58;11.93;;;11.40;99.90;;;;;;5549611;25;20468;-80
2024/04/11 08:18:48;;;;;;;19.27;11.40;;;11.40;99.90;;;;;;5549158;25;20021;-80
2024/04/11 08:21:16;;;;;;;16.67;10.02;;;11.50;99.90;;;;;;5518134;25;20369;-81
2024/04/11 08:23:43;;;;;;;23.42;13.82;;;11.50;99.90;;;;;;5527583;25;20473;-80
2024/04/11 08:26:12;;;;;;;22.00;12.57;;;11.50;99.90;;;;;;5525580;25;20017;-81
2024/04/11 08:28:41;;;;;;;21.60;11.10;;;11.60;99.90;;;;;;5531000;25;20021;-80
2024/04/11 08:31:09;;;;;;;22.00;12.48;;;11.60;99.90;;;;;;5532057;25;20456;-79
2024/04/11 08:33:39;;;;;;;21.45;12.70;;;11.70;99.90;;;;;;5527461;25;20372;-80
2024/04/11 08:36:10;;;;;;;21.10;11.57;;;11.70;99.90;;;;;;5528980;25;20018;-81
2024/04/11 08:38:40;;;;;;;17.48;10.93;;;11.70;99.90;;;;;;5528669;25;20021;-80
2024/04/11 08:41:11;;;;;;;26.30;12.50;;;11.80;99.90;;;;;;5550063;25;20029;-81
2024/04/11 08:43:40;;;;;;;25.45;12.00;;;11.80;99.90;;;;;;5531433;25;20021;-81
2024/04/11 08:46:09;;;;;;;17.20;11.98;;;11.90;99.90;;;;;;5514638;25;20088;-80
2024/04/11 08:48:38;;;;;;;17.02;11.07;;;11.90;99.90;;;;;;5512904;26;20010;-80
2024/04/11 08:51:19;;;;;;;21.88;12.75;;;11.90;99.90;;;;;;5526197;25;20497;-80
2024/04/11 08:53:48;;;;;;;24.73;12.70;;;11.90;99.90;;;;;;5529700;25;20380;-79
2024/04/11 08:56:16;;;;;;;18.38;11.55;;;11.90;99.90;;;;;;5538811;25;20033;-81
2024/04/11 08:58:44;;;;;;;18.77;11.00;;;11.90;99.90;;;;;;5522639;26;20038;-80
2024/04/11 09:01:14;;;;;;;15.98;10.10;;;11.90;99.90;;;;;;5543920;25;20029;-81
2024/04/11 09:03:45;;;;;;;18.17;10.70;;;12.50;99.90;;;;;;5548417;25;20040;-81
2024/04/11 09:06:13;;;;;;;16.90;10.68;;;12.00;99.90;;;;;;5543237;25;20033;-81
2024/04/11 09:08:41;;;;;;;17.40;10.27;;;12.10;99.90;;;;;;5534338;25;20598;-80
2024/04/11 09:11:09;;;;;;;15.48;10.20;;;12.10;99.90;;;;;;5534449;25;20013;-81
2024/04/11 09:13:36;;;;;;;14.40;10.00;;;12.20;99.90;;;;;;5543460;25;20030;-82
2024/04/11 09:16:06;;;;;;;15.65;11.55;;;12.20;99.90;;;;;;5511930;26;20385;-82
2024/04/11 09:18:33;;;;;;;15.43;10.50;;;12.20;99.90;;;;;;5519667;25;20481;-81
2024/04/11 09:21:04;;;;;;;17.20;10.73;;;12.20;99.90;;;;;;5533519;25;20033;-81
2024/04/11 09:23:43;;;;;;;18.83;11.25;;;12.20;99.90;;;;;;5525322;25;20032;-80
2024/04/11 09:26:13;;;;;;;16.60;10.85;;;12.30;99.90;;;;;;5541905;25;20029;-80
2024/04/11 09:28:41;;;;;;;18.20;11.45;;;12.30;99.90;;;;;;5543433;25;20034;-80
2024/04/11 09:31:11;;;;;;;18.60;11.05;;;12.30;99.90;;;;;;5527680;25;20466;-82
2024/04/11 09:33:42;;;;;;;16.95;10.95;;;13.30;99.90;;;;;;5473458;25;20033;-80
2024/04/11 09:36:11;;;;;;;16.25;10.60;;;12.40;99.90;;;;;;5562362;25;20480;-80
2024/04/11 09:38:41;;;;;;;18.17;10.50;;;12.40;99.90;;;;;;5506734;26;20074;-80
2024/04/11 09:41:12;;;;;;;14.38;9.43;;;12.50;99.90;;;;;;5530245;25;20466;-80
2024/04/11 09:43:45;;;;;;;18.23;10.45;;;12.50;99.90;;;;;;5513706;26;20029;-81
2024/04/11 09:46:17;;;;;;;16.77;10.55;;;12.50;99.90;;;;;;5541276;25;20025;-81
2024/04/11 09:48:47;;;;;;;15.35;9.40;;;12.40;99.90;;;;;;5549892;25;20021;-82
2024/04/11 09:51:15;;;;;;;13.90;8.65;;;12.50;99.90;;;;;;5533126;25;20036;-81
2024/04/11 09:53:42;;;;;;;13.75;10.18;;;12.50;99.90;;;;;;5519246;25;20466;-81
2024/04/11 09:56:15;;;;;;;14.52;9.57;;;12.60;99.90;;;;;;5514234;26;20034;-82
2024/04/11 09:58:45;;;;;;;13.50;8.65;;;12.70;99.90;;;;;;5552976;25;20024;-80
2024/04/11 10:01:32;;;;;;;16.05;9.68;;;12.70;99.90;;;;;;5533915;25;20380;-81
2024/04/11 10:04:05;;;;;;;12.23;7.97;;;12.70;99.90;;;;;;5546320;25;20045;-80
2024/04/11 10:06:35;;;;;;;11.47;7.53;;;12.70;99.90;;;;;;5527063;25;20933;-80
2024/04/11 10:09:18;;;;;;;15.07;8.73;;;12.70;99.90;;;;;;5530398;25;20018;-78
2024/04/11 10:11:51;;;;;;;11.45;7.80;;;12.70;99.90;;;;;;5521583;25;20024;-81
2024/04/11 10:14:21;;;;;;;11.45;7.15;;;12.80;99.90;;;;;;5523893;25;20021;-81
2024/04/11 10:16:51;;;;;;;11.55;7.32;;;12.80;99.90;;;;;;5519453;25;20033;-80
2024/04/11 10:19:26;;;;;;;11.82;7.97;;;12.80;99.90;;;;;;5538236;25;20025;-81
2024/04/11 10:22:04;;;;;;;11.05;7.28;;;12.80;99.90;;;;;;5535745;25;20368;-80
2024/04/11 10:24:34;;;;;;;12.20;8.15;;;12.90;99.90;;;;;;5524290;25;20762;-81
2024/04/11 10:27:09;;;;;;;12.55;8.75;;;12.90;99.90;;;;;;5535474;25;20627;-80
2024/04/11 10:29:43;;;;;;;13.98;8.43;;;12.90;99.90;;;;;;5525369;25;20025;-80
2024/04/11 10:32:26;;;;;;;12.77;8.05;;;13.00;99.90;;;;;;5542361;25;20020;-82
2024/04/11 10:34:56;;;;;;;10.80;7.38;;;13.00;99.90;;;;;;5525298;25;20033;-81
2024/04/11 10:37:24;;;;;;;10.60;7.70;;;13.00;99.90;;;;;;5529002;25;20025;-82
2024/04/11 10:39:55;;;;;;;14.35;8.15;;;13.20;99.90;;;;;;5537541;25;20013;-80
2024/04/11 10:42:36;;;;;;;13.55;8.48;;;13.20;99.90;;;;;;5509301;25;20029;-81
2024/04/11 10:45:07;;;;;;;11.57;7.68;;;13.20;99.90;;;;;;5519747;26;20378;-81
2024/04/11 10:47:38;;;;;;;15.57;8.77;;;13.20;99.90;;;;;;5542277;25;20025;-81
2024/04/11 10:50:15;;;;;;;13.00;8.68;;;13.30;99.90;;;;;;5525790;26;20022;-80
2024/04/11 10:52:45;;;;;;;16.48;9.23;;;13.30;99.90;;;;;;5530187;25;20037;-80
2024/04/11 10:55:28;;;;;;;12.52;8.18;;;13.30;99.90;;;;;;5542884;25;20044;-80
2024/04/11 10:58:13;;;;;;;14.43;8.73;;;13.30;99.90;;;;;;5535249;25;20018;-80
2024/04/11 11:06:24;;;;;;;14.50;8.55;;;13.50;99.90;;;;;;5522843;25;20481;-82
2024/04/11 11:08:59;;;;;;;16.83;9.43;;;13.60;99.90;;;;;;5527343;25;20477;-81
2024/04/11 11:11:27;;;;;;;15.18;8.48;;;13.60;99.90;;;;;;5530098;25;20022;-81
2024/04/11 11:13:55;;;;;;;14.35;9.05;;;13.60;99.90;;;;;;5526873;25;20409;-81
2024/04/11 11:16:26;;;;;;;16.20;9.52;;;13.70;99.90;;;;;;5524028;26;20048;-81
2024/04/11 11:18:53;;;;;;;15.70;9.63;;;13.70;99.90;;;;;;5529256;25;20378;-80
2024/04/11 11:21:22;;;;;;;13.32;9.27;;;13.80;99.90;;;;;;5527633;25;20014;-80
2024/04/11 11:23:59;;;;;;;15.27;9.23;;;13.80;99.90;;;;;;5522912;26;20022;-80
2024/04/11 11:26:36;;;;;;;15.75;9.63;;;14.20;99.90;;;;;;5531254;25;20024;-82
2024/04/11 11:29:07;;;;;;;12.95;8.70;;;13.90;99.90;;;;;;5521338;25;20029;-81
2024/04/11 11:31:36;;;;;;;14.90;9.25;;;13.90;99.90;;;;;;5542783;25;20034;-80
2024/04/11 11:34:09;;;;;;;15.13;9.55;;;14.00;99.90;;;;;;5540081;25;20034;-80
2024/04/11 11:36:47;;;;;;;14.48;8.85;;;14.00;99.90;;;;;;5533711;25;20025;-81
2024/04/11 11:39:17;;;;;;;14.57;9.38;;;14.00;99.90;;;;;;5545128;25;20476;-80
2024/04/11 11:41:48;;;;;;;15.20;9.15;;;14.00;99.90;;;;;;5534101;25;20033;-81
2024/04/11 11:44:18;;;;;;;15.45;9.73;;;14.10;99.90;;;;;;5535227;25;20053;-80
2024/04/11 11:47:05;;;;;;;14.25;9.50;;;14.10;99.90;;;;;;5513877;25;20030;-79
2024/04/11 11:49:37;;;;;;;16.42;10.15;;;14.10;99.90;;;;;;5525236;26;20033;-80
2024/04/11 11:52:14;;;;;;;15.57;9.40;;;14.40;99.90;;;;;;5525468;25;20385;-82
2024/04/11 11:54:41;;;;;;;13.90;9.52;;;14.20;99.90;;;;;;5551738;25;20020;-81
2024/04/11 11:57:22;;;;;;;15.20;9.90;;;14.30;99.90;;;;;;5530500;25;20022;-82
2024/04/11 11:59:53;;;;;;;15.57;9.63;;;14.30;99.90;;;;;;5525280;26;20045;-81
2024/04/11 12:02:23;;;;;;;13.32;8.98;;;14.40;99.90;;;;;;5522219;25;20027;-80
2024/04/11 12:04:53;;;;;;;15.07;9.48;;;14.40;99.90;;;;;;5529018;25;20018;-80
2024/04/11 12:07:20;;;;;;;15.50;9.68;;;14.50;99.90;;;;;;5521991;25;20037;-80
2024/04/11 12:10:12;;;;;;;15.55;9.43;;;14.50;99.90;;;;;;5522712;25;20029;-80
2024/04/11 12:12:48;;;;;;;17.08;9.38;;;14.50;99.90;;;;;;5512170;26;20513;-81
2024/04/11 12:15:16;;;;;;;13.75;9.35;;;14.50;99.90;;;;;;5519567;25;20033;-80
2024/04/11 12:17:43;;;;;;;14.73;9.13;;;14.80;99.90;;;;;;5519971;26;20038;-81
2024/04/11 12:20:15;;;;;;;13.98;8.90;;;15.20;99.90;;;;;;5536009;25;20181;-80
2024/04/11 12:22:44;;;;;;;15.75;9.13;;;14.60;99.90;;;;;;5517740;26;20026;-81
2024/04/11 12:25:11;;;;;;;14.93;9.50;;;14.70;99.90;;;;;;5522959;25;20096;-80
2024/04/11 12:27:39;;;;;;;14.88;9.38;;;14.70;99.90;;;;;;5521718;25;20036;-80
2024/04/11 12:30:07;;;;;;;13.85;9.93;;;14.90;99.90;;;;;;5533437;25;20866;-80
2024/04/11 12:32:35;;;;;;;16.98;9.57;;;14.90;99.90;;;;;;5527034;25;20025;-80
2024/04/11 12:35:01;;;;;;;14.90;9.50;;;15.00;99.90;;;;;;5526750;25;20017;-81
2024/04/11 12:37:34;;;;;;;18.25;10.05;;;15.00;99.90;;;;;;5522289;25;20037;-80
2024/04/11 12:40:06;;;;;;;13.32;9.10;;;15.00;99.90;;;;;;5525103;25;20037;-79
2024/04/11 12:42:33;;;;;;;18.08;10.05;;;15.10;99.90;;;;;;5536425;25;20038;-82
2024/04/11 12:45:07;;;;;;;17.30;10.52;;;15.10;99.90;;;;;;5523242;25;20021;-80
2024/04/11 12:47:48;;;;;;;20.40;11.25;;;15.10;99.90;;;;;;5521242;25;20021;-82
2024/04/11 12:50:21;;;;;;;14.07;8.80;;;15.10;99.90;;;;;;5509424;25;20378;-79
2024/04/11 12:52:49;;;;;;;16.25;9.25;;;15.10;99.90;;;;;;5529067;25;20028;-80
2024/04/11 12:55:24;;;;;;;15.07;8.38;;;15.20;99.90;;;;;;5555623;25;20020;-81
2024/04/11 12:57:52;;;;;;;14.90;8.82;;;15.30;99.90;;;;;;5516879;25;20022;-80
2024/04/11 13:03:15;;;;;;;12.95;7.95;;;15.20;99.90;;;;;;5529737;25;20030;-80
2024/04/11 13:05:52;;;;;;;12.75;7.28;;;15.30;99.90;;;;;;5505494;26;20034;-80